createdAt,value
2022-09-17T00:02:16.519Z,99316.94
2022-09-17T00:07:19.504Z,99320.91
2022-09-17T00:12:23.557Z,99320.03
2022-09-17T00:17:26.457Z,99316.16
2022-09-17T00:22:29.078Z,99323.16
2022-09-17T00:27:33.245Z,99331.56
2022-09-17T00:32:35.922Z,99336.56
2022-09-17T00:37:38.613Z,99332.16
2022-09-17T00:42:42.579Z,99327.78
2022-09-17T00:47:46.909Z,99336.84
2022-09-17T00:52:51.612Z,99336.81
2022-09-17T00:57:57.953Z,99337.97
2022-09-17T01:03:00.686Z,99352.63
2022-09-17T01:08:08.856Z,99339.81
2022-09-17T01:13:18.442Z,99354.19
2022-09-17T01:18:26.765Z,99354.81
2022-09-17T01:23:52.090Z,99353.50
2022-09-17T01:28:58.585Z,99346.88
2022-09-17T01:34:06.108Z,99353.97
2022-09-17T01:39:13.176Z,99352.28
2022-09-17T01:44:18.688Z,99350.59
2022-09-17T01:49:22.692Z,99356.13
2022-09-17T01:54:26.908Z,99351.59
2022-09-17T01:59:31.450Z,99345.81
2022-09-17T02:04:37.466Z,99355.91
2022-09-17T02:09:42.117Z,99356.75
2022-09-17T02:14:46.874Z,99358.06
2022-09-17T02:19:50.860Z,99366.84
2022-09-17T02:24:58.538Z,99363.63
2022-09-17T02:30:01.226Z,99376.34
2022-09-17T02:35:06.377Z,99367.88
2022-09-17T02:40:10.461Z,99374.28
2022-09-17T02:45:15.881Z,99364.53
2022-09-17T02:50:25.614Z,99364.97
2022-09-17T02:55:31.956Z,99373.38
2022-09-17T03:00:35.994Z,99358.22
2022-09-17T03:05:41.968Z,99364.91
2022-09-17T03:10:44.608Z,99360.84
2022-09-17T03:15:47.311Z,99360.44
2022-09-17T03:20:51.328Z,99364.97
2022-09-17T03:25:53.976Z,99367.28
2022-09-17T03:30:56.773Z,99371.44
2022-09-17T03:36:00.992Z,99368.06
2022-09-17T03:41:04.958Z,99375.59
2022-09-17T03:46:07.689Z,99371.97
2022-09-17T03:51:11.677Z,99373.25
2022-09-17T03:56:14.465Z,99367.50
2022-09-17T04:01:17.264Z,99361.72
2022-09-17T04:06:21.284Z,99362.88
2022-09-17T04:11:24.053Z,99354.13
2022-09-17T04:16:26.791Z,99359.63
2022-09-17T04:21:30.956Z,99366.00
2022-09-17T04:26:33.618Z,99368.44
2022-09-17T04:31:36.299Z,99364.75
2022-09-17T04:36:40.394Z,99368.72
2022-09-17T04:41:43.054Z,99372.56
2022-09-17T04:46:45.833Z,99369.34
2022-09-17T04:51:49.906Z,99375.00
2022-09-17T04:56:52.570Z,99382.50
2022-09-17T05:01:55.523Z,99387.34
2022-09-17T05:07:00.258Z,99393.56
2022-09-17T05:12:03.386Z,99390.16
2022-09-17T05:17:06.128Z,99393.31
2022-09-17T05:22:10.110Z,99388.09
2022-09-17T05:27:12.849Z,99398.72
2022-09-17T05:32:15.523Z,99400.88
2022-09-17T05:37:19.622Z,99406.50
2022-09-17T05:42:22.325Z,99416.16
2022-09-17T05:47:25.082Z,99428.56
2022-09-17T05:52:29.804Z,99426.03
2022-09-17T05:57:32.584Z,99437.75
2022-09-17T06:02:35.618Z,99430.00
2022-09-17T06:07:39.967Z,99438.22
2022-09-17T06:12:42.640Z,99436.38
2022-09-17T06:17:45.285Z,99446.13
2022-09-17T06:22:49.492Z,99450.66
2022-09-17T06:27:52.247Z,99448.66
2022-09-17T06:32:54.955Z,99450.50
2022-09-17T06:37:58.932Z,99460.41
2022-09-17T06:43:01.571Z,99458.00
2022-09-17T06:48:05.552Z,99469.44
2022-09-17T06:53:10.098Z,99459.41
2022-09-17T06:58:12.757Z,99458.41
2022-09-17T07:03:16.537Z,99457.28
2022-09-17T07:08:26.941Z,99453.16
2022-09-17T07:13:29.671Z,99456.22
2022-09-17T07:18:32.285Z,99448.84
2022-09-17T07:23:36.843Z,99447.31
2022-09-17T07:28:39.755Z,99443.78
2022-09-17T07:33:42.422Z,99450.16
2022-09-17T07:38:47.330Z,99457.91
2022-09-17T07:43:53.074Z,99461.72
2022-09-17T07:48:55.985Z,99457.75
2022-09-17T07:54:00.250Z,99471.88
2022-09-17T07:59:03.414Z,99470.78
2022-09-17T08:04:06.075Z,99484.31
2022-09-17T08:09:10.844Z,99462.81
2022-09-17T08:14:14.620Z,99473.53
2022-09-17T08:19:19.141Z,99483.84
2022-09-17T08:24:23.418Z,99477.63
2022-09-17T08:29:26.201Z,99492.59
2022-09-17T08:34:28.988Z,99496.59
2022-09-17T08:39:32.956Z,99490.63
2022-09-17T08:44:41.105Z,99506.88
2022-09-17T08:49:49.567Z,99511.41
2022-09-17T08:54:56.732Z,99524.84
2022-09-17T09:00:01.488Z,99526.53
2022-09-17T09:05:06.833Z,99530.69
2022-09-17T09:10:15.314Z,99526.16
2022-09-17T09:15:34.936Z,99537.44
2022-09-17T09:20:41.321Z,99539.28
2022-09-17T09:25:53.426Z,99547.88
2022-09-17T09:31:00.180Z,99548.72
2022-09-17T09:36:03.184Z,99552.84
2022-09-17T09:41:09.827Z,99558.63
2022-09-17T09:46:26.488Z,99562.88
2022-09-17T09:51:33.815Z,99560.19
2022-09-17T09:56:48.110Z,99551.41
2022-09-17T10:01:51.122Z,99553.25
2022-09-17T10:06:55.069Z,99558.91
2022-09-17T10:12:04.051Z,99557.34
2022-09-17T10:17:18.108Z,99561.16
2022-09-17T10:22:24.953Z,99553.50
2022-09-17T10:27:29.342Z,99545.16
2022-09-17T10:32:32.164Z,99546.03
2022-09-17T10:37:37.483Z,99543.19
2022-09-17T10:42:41.473Z,99539.38
2022-09-17T10:47:44.197Z,99539.94
2022-09-17T10:52:48.325Z,99520.56
2022-09-17T10:58:03.968Z,99530.44
2022-09-17T11:03:36.369Z,99532.59
2022-09-17T11:08:40.542Z,99515.88
2022-09-17T11:13:47.176Z,99515.28
2022-09-17T11:18:51.260Z,99509.22
2022-09-17T11:24:10.027Z,99509.19
2022-09-17T11:29:27.227Z,99505.72
2022-09-17T11:34:33.137Z,99505.59
2022-09-17T11:39:40.454Z,99511.72
2022-09-17T11:44:48.218Z,99532.81
2022-09-17T11:49:53.293Z,99551.09
2022-09-17T11:56:16.500Z,99538.91
2022-09-17T12:01:22.988Z,99527.31
2022-09-17T12:06:29.938Z,99518.94
2022-09-17T12:11:34.890Z,99508.97
2022-09-17T12:16:40.150Z,99505.41
2022-09-17T12:21:44.265Z,99495.16
2022-09-17T12:27:01.279Z,99500.53
2022-09-17T12:32:10.268Z,99503.25
2022-09-17T12:37:16.050Z,99490.88
2022-09-17T12:42:25.813Z,99481.66
2022-09-17T12:47:54.454Z,99466.78
2022-09-17T12:53:05.243Z,99465.00
2022-09-17T12:58:12.247Z,99460.53
2022-09-17T13:03:20.909Z,99469.84
2022-09-17T13:08:40.101Z,99460.19
2022-09-17T13:13:44.875Z,99438.59
2022-09-17T13:19:15.130Z,99440.78
2022-09-17T13:24:16.576Z,99438.72
2022-09-17T13:29:58.064Z,99445.19
2022-09-17T13:35:22.366Z,99443.72
2022-09-17T13:40:25.963Z,99440.28
2022-09-17T13:45:28.655Z,99444.91
2022-09-17T13:50:33.859Z,99454.50
2022-09-17T13:55:37.352Z,99448.13
2022-09-17T14:00:54.168Z,99431.84
2022-09-17T14:05:58.263Z,99435.13
2022-09-17T14:11:04.364Z,99439.66
2022-09-17T14:16:46.951Z,99432.25
2022-09-17T14:22:00.642Z,99430.41
2022-09-17T14:27:09.946Z,99424.34
2022-09-17T14:32:15.992Z,99420.47
2022-09-17T14:37:21.166Z,99421.19
2022-09-17T14:42:25.292Z,99415.91
2022-09-17T14:47:28.022Z,99414.78
2022-09-17T14:52:32.648Z,99413.94
2022-09-17T14:57:36.489Z,99405.34
2022-09-17T15:02:41.428Z,99407.19
2022-09-17T15:07:45.735Z,99402.38
2022-09-17T15:12:48.729Z,99403.91
2022-09-17T15:17:52.085Z,99417.06
2022-09-17T15:22:58.127Z,99412.50
2022-09-17T15:28:04.411Z,99418.03
2022-09-17T15:33:11.702Z,99418.59
2022-09-17T15:38:23.888Z,99423.16
2022-09-17T15:43:28.000Z,99421.84
2022-09-17T15:48:36.947Z,99425.03
2022-09-17T15:53:40.940Z,99415.38
2022-09-17T15:58:53.176Z,99409.72
2022-09-17T16:04:41.083Z,99430.97
2022-09-17T16:09:47.931Z,99433.09
2022-09-17T16:14:52.190Z,99439.94
2022-09-17T16:19:55.662Z,99445.81
2022-09-17T16:24:59.726Z,99446.50
2022-09-17T16:30:04.262Z,99452.50
2022-09-17T16:35:07.385Z,99465.59
2022-09-17T16:40:12.576Z,99463.72
2022-09-17T16:45:15.704Z,99466.84
2022-09-17T16:50:18.762Z,99470.53
2022-09-17T16:55:22.762Z,99482.88
2022-09-17T17:00:25.528Z,99482.63
2022-09-17T17:05:28.257Z,99481.09
2022-09-17T17:10:32.306Z,99467.69
2022-09-17T17:15:34.970Z,99490.47
2022-09-17T17:20:37.633Z,99484.25
2022-09-17T17:25:41.611Z,99477.34
2022-09-17T17:30:48.018Z,99481.34
2022-09-17T17:35:50.851Z,99483.03
2022-09-17T17:41:04.564Z,99497.16
2022-09-17T17:46:07.762Z,99485.19
2022-09-17T17:51:10.832Z,99493.69
2022-09-17T17:56:14.845Z,99502.00
2022-09-17T18:01:19.496Z,99506.19
2022-09-17T18:06:22.214Z,99505.72
2022-09-17T18:11:26.305Z,99504.13
2022-09-17T18:16:29.147Z,99517.84
2022-09-17T18:21:31.976Z,99519.91
2022-09-17T18:26:36.030Z,99515.22
2022-09-17T18:31:38.822Z,99520.47
2022-09-17T18:36:41.665Z,99523.53
2022-09-17T18:41:45.818Z,99512.63
2022-09-17T18:46:49.900Z,99521.28
2022-09-17T18:51:52.630Z,99510.03
2022-09-17T18:56:56.711Z,99520.34
2022-09-17T19:01:59.841Z,99526.75
2022-09-17T19:07:02.763Z,99539.88
2022-09-17T19:12:06.970Z,99525.13
2022-09-17T19:17:09.949Z,99512.53
2022-09-17T19:22:12.726Z,99501.59
2022-09-17T19:27:16.763Z,99508.50
2022-09-17T19:32:19.429Z,99515.75
2022-09-17T19:37:22.170Z,99521.66
2022-09-17T19:42:26.294Z,99508.34
2022-09-17T19:47:29.205Z,99501.81
2022-09-17T19:52:31.881Z,99503.19
2022-09-17T19:57:36.000Z,99498.50
2022-09-17T20:02:38.729Z,99510.13
2022-09-17T20:07:42.735Z,99511.28
2022-09-17T20:12:46.785Z,99505.91
2022-09-17T20:17:49.532Z,99509.44
2022-09-17T20:22:52.778Z,99501.03
2022-09-17T20:27:56.852Z,99507.59
2022-09-17T20:32:59.550Z,99500.19
2022-09-17T20:43:26.823Z,99503.38
2022-09-17T20:48:30.785Z,99507.25
2022-09-17T20:53:34.411Z,99505.41
2022-09-17T20:58:45.284Z,99512.38
2022-09-17T21:03:49.982Z,99505.75
2022-09-17T21:08:53.142Z,99507.81
2022-09-17T21:13:57.210Z,99495.34
2022-09-17T21:19:01.745Z,99502.97
2022-09-17T21:24:05.475Z,99493.19
2022-09-17T21:29:09.643Z,99492.88
2022-09-17T21:34:13.322Z,99491.03
2022-09-17T21:39:17.535Z,99495.56
2022-09-17T21:44:21.859Z,99486.63
2022-09-17T21:49:24.798Z,99488.16
2022-09-17T21:54:27.514Z,99495.63
2022-09-17T21:59:31.516Z,99498.16
2022-09-17T22:04:34.343Z,99491.56
2022-09-17T22:09:37.172Z,99492.94
2022-09-17T22:14:41.318Z,99485.03
2022-09-17T22:19:44.032Z,99480.78
2022-09-17T22:24:46.683Z,99481.47
2022-09-17T22:29:50.790Z,99480.31
2022-09-17T22:34:53.912Z,99460.38
2022-09-17T22:39:57.046Z,99453.00
2022-09-17T22:45:01.604Z,99456.56
2022-09-17T22:50:04.449Z,99460.38
2022-09-17T22:55:07.402Z,99462.63
2022-09-17T23:00:13.153Z,99462.78
2022-09-17T23:05:16.001Z,99481.31
2022-09-17T23:10:18.960Z,99485.69
2022-09-17T23:15:27.214Z,99488.78
2022-09-17T23:20:29.999Z,99484.59
2022-09-17T23:25:33.064Z,99482.28
2022-09-17T23:30:37.123Z,99483.47
2022-09-17T23:35:39.811Z,99486.34
2022-09-17T23:40:42.685Z,99488.38
2022-09-17T23:45:46.775Z,99500.84
2022-09-17T23:50:49.668Z,99504.38
2022-09-17T23:55:52.423Z,99502.53
